Time;durP1;ratioP1;P1;durP2;ratioP2;P2;SDS_P1;SDS_P2;PMS_P1;PMS_P2;Temp;Humidity;BMP_temperature;BMP_pressure;BME280_temperature;BME280_humidity;BME280_pressure;Samples;Min_cycle;Max_cycle;Signal;HPM_P1;HPM_P2
2024/01/18 00:02:06;;;;;;;0.40;0.20;;;9.00;99.90;;;;;;5072921;28;20427;-57
2024/01/18 00:04:33;;;;;;;0.40;0.20;;;8.90;99.90;;;;;;5072453;28;20810;-58
2024/01/18 00:07:00;;;;;;;0.47;0.20;;;8.90;99.90;;;;;;5072793;28;20851;-58
2024/01/18 00:09:27;;;;;;;1.77;0.20;;;8.90;99.90;;;;;;5071833;28;20733;-58
2024/01/18 00:11:54;;;;;;;0.40;0.20;;;8.90;99.90;;;;;;5072863;28;20446;-58
2024/01/18 00:14:21;;;;;;;0.52;0.20;;;8.90;99.90;;;;;;5072755;28;20427;-57
2024/01/18 00:16:48;;;;;;;0.40;0.20;;;8.90;99.90;;;;;;5072823;28;20435;-57
2024/01/18 00:19:17;;;;;;;0.50;0.20;;;8.90;99.90;;;;;;5073156;28;20412;-59
2024/01/18 00:21:44;;;;;;;1.40;0.20;;;8.90;99.90;;;;;;5073604;28;20533;-58
2024/01/18 00:24:10;;;;;;;0.40;0.20;;;8.90;99.90;;;;;;5072935;28;20740;-56
2024/01/18 00:26:37;;;;;;;0.80;0.20;;;8.90;99.90;;;;;;5072903;28;20420;-58
2024/01/18 00:29:04;;;;;;;0.40;0.20;;;8.90;99.90;;;;;;5073248;28;20801;-58
2024/01/18 00:31:31;;;;;;;0.50;0.20;;;8.80;99.90;;;;;;5074164;28;20415;-58
2024/01/18 00:33:58;;;;;;;0.40;0.20;;;8.80;99.90;;;;;;5073361;28;20473;-58
2024/01/18 00:36:28;;;;;;;0.47;0.20;;;8.90;99.90;;;;;;5074605;28;20832;-57
2024/01/18 00:38:55;;;;;;;0.70;0.20;;;8.90;99.90;;;;;;5074193;28;20420;-59
2024/01/18 00:41:22;;;;;;;0.90;0.20;;;8.90;99.90;;;;;;5073852;28;20424;-57
2024/01/18 00:43:50;;;;;;;0.40;0.20;;;8.80;99.90;;;;;;5073101;28;20427;-58
2024/01/18 00:46:21;;;;;;;0.40;0.20;;;8.80;99.90;;;;;;5073073;28;20466;-58
2024/01/18 00:48:48;;;;;;;0.45;0.20;;;8.80;99.90;;;;;;5073653;28;20455;-57
2024/01/18 00:51:15;;;;;;;0.50;0.20;;;8.90;99.90;;;;;;5072790;28;20427;-58
2024/01/18 00:53:43;;;;;;;0.40;0.20;;;8.80;99.90;;;;;;5075590;28;20468;-58
2024/01/18 00:56:11;;;;;;;0.40;0.20;;;8.80;99.90;;;;;;5076458;28;20435;-58
2024/01/18 00:58:38;;;;;;;0.40;0.20;;;8.90;99.90;;;;;;5077450;28;20895;-57
2024/01/18 01:01:05;;;;;;;0.40;0.20;;;8.90;99.90;;;;;;5077498;28;20860;-58
2024/01/18 01:03:32;;;;;;;0.38;0.10;;;8.90;99.90;;;;;;5078094;28;20747;-58
2024/01/18 01:05:59;;;;;;;0.47;0.20;;;8.90;99.90;;;;;;5077366;28;20679;-56
2024/01/18 01:08:27;;;;;;;0.40;0.20;;;8.90;99.90;;;;;;5077513;28;20423;-58
2024/01/18 01:10:55;;;;;;;1.30;0.20;;;8.90;99.90;;;;;;5077491;28;20435;-58
2024/01/18 01:13:22;;;;;;;0.50;0.20;;;8.90;99.90;;;;;;5076915;28;20445;-55
2024/01/18 01:15:49;;;;;;;0.50;0.20;;;8.80;99.90;;;;;;5076851;28;20443;-57
2024/01/18 01:18:16;;;;;;;0.40;0.20;;;8.80;99.90;;;;;;5078468;28;20495;-56
2024/01/18 01:20:43;;;;;;;0.90;0.20;;;8.80;99.90;;;;;;5076900;28;20560;-57
2024/01/18 01:23:10;;;;;;;0.40;0.20;;;8.80;99.90;;;;;;5077270;28;20423;-58
2024/01/18 01:25:37;;;;;;;0.70;0.20;;;8.70;99.90;;;;;;5077021;28;20430;-57
2024/01/18 01:28:06;;;;;;;0.50;0.20;;;8.60;99.90;;;;;;5076267;28;20462;-55
2024/01/18 01:30:34;;;;;;;0.50;0.20;;;8.60;99.90;;;;;;5076277;28;20489;-58
2024/01/18 01:33:00;;;;;;;0.40;0.20;;;8.60;99.90;;;;;;5076279;28;20505;-58
2024/01/18 01:35:27;;;;;;;0.40;0.20;;;8.60;99.90;;;;;;5076175;28;20942;-58
2024/01/18 01:37:54;;;;;;;0.47;0.20;;;8.60;99.90;;;;;;5076805;28;20851;-58
2024/01/18 01:40:21;;;;;;;0.40;0.20;;;8.60;99.90;;;;;;5077237;28;20423;-58
2024/01/18 01:42:49;;;;;;;0.50;0.20;;;8.50;99.90;;;;;;5076430;28;20466;-57
2024/01/18 01:45:17;;;;;;;0.80;0.20;;;8.50;99.90;;;;;;5075249;28;20431;-58
2024/01/18 01:47:44;;;;;;;0.98;0.20;;;8.50;99.90;;;;;;5075919;28;20419;-58
2024/01/18 01:50:11;;;;;;;0.40;0.20;;;8.50;99.90;;;;;;5076935;28;20489;-57
2024/01/18 01:52:40;;;;;;;0.40;0.20;;;8.60;99.90;;;;;;5076207;28;20880;-58
2024/01/18 01:55:08;;;;;;;0.40;0.20;;;8.60;99.90;;;;;;5075916;28;20415;-58
2024/01/18 01:57:37;;;;;;;0.60;0.20;;;8.60;99.90;;;;;;5076882;28;20861;-57
2024/01/18 02:00:05;;;;;;;0.40;0.20;;;8.60;99.90;;;;;;5075447;28;20822;-58
2024/01/18 02:02:35;;;;;;;0.43;0.20;;;8.60;99.90;;;;;;5076451;28;20423;-57
2024/01/18 02:05:02;;;;;;;0.43;0.20;;;8.60;99.90;;;;;;5074291;28;20473;-58
2024/01/18 02:07:30;;;;;;;0.40;0.20;;;8.60;99.90;;;;;;5073991;28;20430;-58
2024/01/18 02:09:58;;;;;;;0.50;0.20;;;8.60;99.90;;;;;;5073208;28;21045;-57
2024/01/18 02:12:25;;;;;;;0.40;0.20;;;8.60;99.90;;;;;;5076542;28;20875;-58
2024/01/18 02:14:52;;;;;;;0.40;0.20;;;8.50;99.90;;;;;;5075653;28;20476;-62
2024/01/18 02:17:19;;;;;;;0.40;0.20;;;8.50;99.90;;;;;;5075101;28;20512;-57
2024/01/18 02:19:48;;;;;;;0.30;0.10;;;8.50;99.90;;;;;;5075558;28;20423;-58
2024/01/18 02:22:17;;;;;;;0.90;0.20;;;8.50;99.90;;;;;;5075254;28;20493;-58
2024/01/18 02:24:52;;;;;;;0.50;0.20;;;8.50;99.90;;;;;;5075120;28;20489;-58
2024/01/18 02:27:20;;;;;;;0.30;0.20;;;8.60;99.90;;;;;;5075163;28;20485;-55
2024/01/18 02:29:49;;;;;;;0.40;0.20;;;8.60;99.90;;;;;;5075846;28;20428;-58
2024/01/18 02:32:16;;;;;;;0.40;0.20;;;8.60;99.90;;;;;;5075250;28;20426;-57
2024/01/18 02:34:43;;;;;;;0.50;0.20;;;8.60;99.90;;;;;;5075557;28;20485;-57
2024/01/18 02:37:12;;;;;;;0.40;0.20;;;8.70;99.90;;;;;;5075273;28;20435;-58
2024/01/18 02:39:39;;;;;;;0.50;0.20;;;8.80;99.90;;;;;;5075186;28;20435;-57
2024/01/18 02:42:06;;;;;;;0.40;0.20;;;8.80;99.90;;;;;;5074991;28;20427;-56
2024/01/18 02:44:39;;;;;;;0.32;0.10;;;8.80;99.90;;;;;;5074900;28;20454;-58
2024/01/18 02:47:06;;;;;;;0.30;0.20;;;8.90;99.90;;;;;;5075075;28;20419;-55
2024/01/18 02:49:37;;;;;;;0.30;0.10;;;8.90;99.90;;;;;;5074673;28;20476;-56
2024/01/18 02:52:05;;;;;;;0.30;0.10;;;8.90;99.90;;;;;;5075601;28;20841;-54
2024/01/18 02:54:32;;;;;;;0.38;0.10;;;9.00;99.90;;;;;;5075326;28;20428;-56
2024/01/18 02:56:59;;;;;;;0.40;0.10;;;9.00;99.90;;;;;;5074378;28;20837;-56
2024/01/18 02:59:26;;;;;;;0.40;0.20;;;9.10;99.90;;;;;;5074885;28;20411;-55
2024/01/18 03:01:54;;;;;;;0.40;0.20;;;9.10;99.90;;;;;;5075677;28;20844;-56
2024/01/18 03:04:21;;;;;;;0.45;0.15;;;9.10;99.90;;;;;;5076013;28;20524;-58
2024/01/18 03:06:48;;;;;;;0.30;0.10;;;9.00;99.90;;;;;;5075557;28;20505;-56
2024/01/18 03:09:15;;;;;;;0.30;0.10;;;9.00;99.90;;;;;;5074667;28;20428;-57
2024/01/18 03:11:42;;;;;;;0.90;0.20;;;9.00;99.90;;;;;;5075235;28;20508;-58
2024/01/18 03:14:10;;;;;;;0.40;0.20;;;9.00;99.90;;;;;;5074502;28;20424;-57
2024/01/18 03:16:42;;;;;;;0.40;0.20;;;9.10;99.90;;;;;;5073891;28;20427;-51
2024/01/18 03:19:11;;;;;;;0.30;0.10;;;9.10;99.90;;;;;;5074767;28;20549;-58
2024/01/18 03:21:38;;;;;;;0.38;0.20;;;9.10;99.90;;;;;;5075155;28;20463;-57
2024/01/18 03:24:05;;;;;;;0.40;0.20;;;9.10;99.90;;;;;;5074920;28;20828;-58
2024/01/18 03:26:33;;;;;;;0.60;0.13;;;9.00;99.90;;;;;;5074171;28;20415;-57
2024/01/18 03:29:03;;;;;;;0.30;0.10;;;9.00;99.90;;;;;;5074372;28;20801;-57
2024/01/18 03:31:30;;;;;;;0.40;0.20;;;9.00;99.90;;;;;;5074790;28;20832;-56
2024/01/18 03:33:57;;;;;;;0.40;0.20;;;9.00;99.90;;;;;;5074498;28;20423;-58
2024/01/18 03:36:25;;;;;;;0.60;0.20;;;9.00;99.90;;;;;;5074688;28;20439;-58
2024/01/18 03:38:53;;;;;;;0.50;0.20;;;9.00;99.90;;;;;;5074585;28;20502;-58
2024/01/18 03:41:20;;;;;;;0.30;0.10;;;8.90;99.90;;;;;;5074381;28;20502;-56
2024/01/18 03:43:47;;;;;;;0.40;0.20;;;8.90;99.90;;;;;;5074427;28;20693;-58
2024/01/18 03:46:15;;;;;;;0.52;0.20;;;8.90;99.90;;;;;;5074454;28;20436;-57
2024/01/18 03:48:42;;;;;;;0.43;0.20;;;8.80;99.90;;;;;;5073535;28;20526;-58
2024/01/18 03:51:09;;;;;;;0.40;0.20;;;8.80;99.90;;;;;;5074298;28;20431;-57
2024/01/18 03:53:43;;;;;;;0.40;0.20;;;8.80;99.90;;;;;;5075283;28;20431;-58
2024/01/18 03:56:11;;;;;;;0.40;0.20;;;8.80;99.90;;;;;;5074413;28;20493;-57
2024/01/18 03:58:38;;;;;;;0.40;0.10;;;8.80;99.90;;;;;;5074794;28;20434;-56
2024/01/18 04:01:05;;;;;;;0.30;0.20;;;8.70;99.90;;;;;;5074390;28;20493;-57
2024/01/18 04:03:32;;;;;;;0.52;0.20;;;8.60;99.90;;;;;;5074853;28;20434;-58
2024/01/18 04:05:59;;;;;;;0.30;0.20;;;8.50;99.90;;;;;;5074001;28;20428;-57
2024/01/18 04:08:27;;;;;;;1.10;0.27;;;8.50;99.90;;;;;;5074874;28;20407;-57
2024/01/18 04:10:55;;;;;;;0.90;0.20;;;8.50;99.90;;;;;;5074241;28;20423;-55
2024/01/18 04:13:22;;;;;;;0.50;0.20;;;8.50;99.90;;;;;;5074653;28;20485;-57
2024/01/18 04:15:49;;;;;;;0.50;0.20;;;8.50;99.90;;;;;;5074217;28;20419;-56
2024/01/18 04:18:16;;;;;;;1.25;0.32;;;8.40;99.90;;;;;;5074508;28;20837;-57
2024/01/18 04:20:43;;;;;;;1.00;0.60;;;8.50;99.90;;;;;;5074259;28;20428;-58
2024/01/18 04:23:10;;;;;;;0.80;0.60;;;8.50;99.90;;;;;;5074223;28;20419;-56
2024/01/18 04:25:37;;;;;;;1.10;0.70;;;8.50;99.90;;;;;;5074250;28;20416;-57
2024/01/18 04:28:06;;;;;;;1.10;0.70;;;8.40;99.90;;;;;;5076618;28;20454;-57
2024/01/18 04:30:33;;;;;;;1.20;0.80;;;8.40;99.90;;;;;;5077329;28;20431;-56
2024/01/18 04:33:00;;;;;;;1.30;0.90;;;8.30;99.90;;;;;;5078206;28;20434;-56
2024/01/18 04:35:27;;;;;;;1.38;0.90;;;8.10;99.90;;;;;;5077781;28;20701;-58
2024/01/18 04:37:54;;;;;;;1.50;0.90;;;7.80;99.90;;;;;;5077484;28;20435;-58
2024/01/18 04:40:21;;;;;;;1.20;0.80;;;7.70;99.90;;;;;;5077564;28;20447;-57
2024/01/18 04:42:48;;;;;;;1.17;0.85;;;7.60;99.90;;;;;;5077437;28;20423;-56
2024/01/18 04:45:17;;;;;;;1.48;0.90;;;7.60;99.90;;;;;;5076298;28;20428;-56
2024/01/18 04:47:44;;;;;;;1.50;0.90;;;7.60;99.90;;;;;;5077099;28;20423;-57
2024/01/18 04:50:11;;;;;;;1.20;0.70;;;7.50;99.90;;;;;;5077391;28;20426;-57
2024/01/18 04:52:38;;;;;;;1.40;0.80;;;7.40;99.90;;;;;;5076699;28;20695;-55
2024/01/18 04:55:05;;;;;;;1.20;0.90;;;7.20;99.90;;;;;;5076728;28;20434;-57
2024/01/18 04:57:33;;;;;;;1.40;0.88;;;7.20;99.90;;;;;;5076544;28;20435;-58
2024/01/18 05:00:00;;;;;;;1.30;0.80;;;7.30;99.90;;;;;;5077263;28;20458;-58
2024/01/18 05:02:28;;;;;;;1.20;0.80;;;7.30;99.90;;;;;;5076652;28;20871;-57
2024/01/18 05:04:55;;;;;;;1.13;0.75;;;7.30;99.90;;;;;;5077610;28;20821;-57
2024/01/18 05:07:23;;;;;;;1.90;0.82;;;7.20;99.90;;;;;;5077371;28;20435;-56
2024/01/18 05:09:50;;;;;;;1.15;0.80;;;7.20;99.90;;;;;;5076114;28;20508;-55
2024/01/18 05:12:17;;;;;;;2.55;0.90;;;7.00;99.90;;;;;;5077052;28;20428;-55
2024/01/18 05:14:44;;;;;;;1.40;0.90;;;7.00;99.90;;;;;;5076612;28;20435;-55
2024/01/18 05:17:12;;;;;;;1.33;0.80;;;7.00;99.90;;;;;;5075111;28;20427;-57
2024/01/18 05:19:41;;;;;;;1.20;0.80;;;7.10;99.90;;;;;;5074912;28;20420;-57
2024/01/18 05:22:09;;;;;;;1.20;0.80;;;7.10;99.90;;;;;;5075682;28;20508;-55
2024/01/18 05:24:36;;;;;;;1.80;0.90;;;7.10;99.90;;;;;;5074623;28;20435;-55
2024/01/18 05:27:03;;;;;;;1.10;0.80;;;6.90;99.90;;;;;;5073628;28;20415;-56
2024/01/18 05:29:30;;;;;;;2.40;0.90;;;6.70;99.90;;;;;;5073970;28;20510;-57
2024/01/18 05:31:57;;;;;;;2.50;0.90;;;6.80;99.90;;;;;;5075193;28;20512;-56
2024/01/18 05:34:24;;;;;;;2.00;0.80;;;6.80;99.90;;;;;;5076285;28;21139;-55
2024/01/18 05:36:53;;;;;;;1.30;0.80;;;6.80;99.90;;;;;;5076193;28;20426;-55
2024/01/18 05:39:20;;;;;;;1.45;0.80;;;6.70;99.90;;;;;;5074909;28;20744;-56
2024/01/18 05:41:47;;;;;;;1.38;0.80;;;6.80;99.90;;;;;;5075202;28;20438;-56
2024/01/18 05:44:14;;;;;;;1.30;0.88;;;6.80;99.90;;;;;;5075703;28;20415;-56
2024/01/18 05:46:41;;;;;;;1.80;1.00;;;6.90;99.90;;;;;;5073984;28;20416;-56
2024/01/18 05:49:08;;;;;;;1.70;0.80;;;7.00;99.90;;;;;;5074373;28;20420;-57
2024/01/18 05:51:35;;;;;;;1.13;0.88;;;6.90;99.90;;;;;;5074796;28;20424;-53
2024/01/18 05:54:04;;;;;;;1.60;0.90;;;6.90;99.90;;;;;;5075542;28;20423;-57
2024/01/18 05:56:31;;;;;;;1.55;1.00;;;6.90;99.90;;;;;;5075003;28;20435;-55
2024/01/18 05:58:58;;;;;;;1.80;1.00;;;6.90;99.90;;;;;;5075884;28;20453;-56
2024/01/18 06:01:25;;;;;;;1.50;0.90;;;6.80;99.90;;;;;;5075328;28;20427;-57
2024/01/18 06:03:52;;;;;;;1.40;0.90;;;6.80;99.90;;;;;;5075289;28;20424;-56
2024/01/18 06:06:19;;;;;;;1.77;1.00;;;6.70;99.90;;;;;;5076087;28;20434;-55
2024/01/18 06:08:46;;;;;;;1.77;1.00;;;6.70;99.90;;;;;;5075816;28;20426;-54
2024/01/18 06:11:15;;;;;;;1.30;0.80;;;6.40;99.90;;;;;;5075728;28;20438;-56
2024/01/18 06:13:42;;;;;;;2.25;0.82;;;6.30;99.90;;;;;;5074979;28;20514;-55
2024/01/18 06:16:10;;;;;;;1.10;0.73;;;6.20;99.90;;;;;;5074140;28;20852;-54
2024/01/18 06:18:38;;;;;;;1.17;0.70;;;6.10;99.90;;;;;;5073604;28;20435;-55
2024/01/18 06:21:07;;;;;;;1.10;0.60;;;6.00;99.90;;;;;;5074171;28;20425;-55
2024/01/18 06:23:34;;;;;;;0.80;0.50;;;6.00;99.90;;;;;;5073202;28;20443;-56
2024/01/18 06:26:01;;;;;;;1.10;0.50;;;5.80;99.90;;;;;;5074526;28;20790;-58
2024/01/18 06:28:30;;;;;;;0.82;0.60;;;5.60;99.90;;;;;;5074471;28;20423;-55
2024/01/18 06:30:57;;;;;;;0.80;0.50;;;5.50;99.90;;;;;;5075346;28;20415;-55
2024/01/18 06:33:26;;;;;;;1.20;0.50;;;5.50;99.90;;;;;;5073181;28;20420;-55
2024/01/18 06:35:53;;;;;;;0.60;0.40;;;5.60;99.90;;;;;;5072213;28;20826;-57
2024/01/18 06:38:20;;;;;;;1.10;0.40;;;5.50;99.90;;;;;;5072054;28;20877;-54
2024/01/18 06:40:47;;;;;;;1.20;0.50;;;5.40;99.90;;;;;;5071188;28;20427;-56
2024/01/18 06:43:14;;;;;;;1.25;0.50;;;5.40;99.90;;;;;;5071315;28;20435;-52
2024/01/18 06:45:43;;;;;;;1.10;0.57;;;5.40;99.90;;;;;;5071139;28;20415;-56
2024/01/18 06:48:10;;;;;;;0.60;0.40;;;5.10;99.90;;;;;;5072744;28;20419;-57
2024/01/18 06:50:37;;;;;;;0.90;0.60;;;5.10;99.90;;;;;;5072622;28;20427;-56
2024/01/18 06:53:04;;;;;;;0.70;0.40;;;5.10;99.90;;;;;;5074072;28;20408;-55
2024/01/18 06:55:31;;;;;;;0.80;0.50;;;5.20;99.90;;;;;;5072238;28;20444;-55
2024/01/18 06:58:02;;;;;;;0.80;0.50;;;5.30;99.90;;;;;;5072826;28;20431;-54
2024/01/18 07:00:29;;;;;;;0.70;0.40;;;5.20;99.90;;;;;;5071015;28;20516;-56
2024/01/18 07:02:57;;;;;;;0.70;0.40;;;4.90;99.90;;;;;;5070798;28;20450;-55
2024/01/18 07:05:24;;;;;;;0.77;0.30;;;4.90;99.90;;;;;;5070503;28;20439;-54
2024/01/18 07:07:51;;;;;;;0.73;0.40;;;4.90;99.90;;;;;;5070456;28;20459;-53
2024/01/18 07:10:20;;;;;;;0.70;0.40;;;4.80;99.90;;;;;;5067576;28;20442;-56
2024/01/18 07:12:47;;;;;;;0.70;0.40;;;4.70;99.90;;;;;;5064119;28;20966;-52
2024/01/18 07:15:15;;;;;;;0.50;0.30;;;4.80;99.90;;;;;;5071721;28;20697;-53
2024/01/18 07:17:42;;;;;;;0.50;0.30;;;5.10;99.90;;;;;;5070201;28;20424;-55
2024/01/18 07:20:13;;;;;;;0.50;0.30;;;5.20;99.90;;;;;;5071036;28;21521;-56
2024/01/18 07:22:40;;;;;;;0.60;0.40;;;5.30;99.90;;;;;;5071535;28;20431;-55
2024/01/18 07:25:07;;;;;;;0.50;0.30;;;5.40;99.90;;;;;;5071502;28;20500;-55
2024/01/18 07:27:34;;;;;;;0.70;0.40;;;5.30;99.90;;;;;;5071206;28;20718;-55
2024/01/18 07:30:03;;;;;;;1.00;0.30;;;5.20;99.90;;;;;;5070001;28;20450;-52
2024/01/18 07:32:30;;;;;;;0.50;0.30;;;5.30;99.90;;;;;;5066635;28;20435;-55
2024/01/18 07:34:57;;;;;;;0.50;0.30;;;5.40;99.90;;;;;;5068803;28;20505;-55
2024/01/18 07:37:25;;;;;;;0.80;0.40;;;5.20;99.90;;;;;;5069281;28;20435;-55
2024/01/18 07:39:52;;;;;;;0.60;0.30;;;5.00;99.90;;;;;;5068264;28;20440;-52
2024/01/18 07:42:19;;;;;;;0.60;0.30;;;5.00;99.90;;;;;;5069489;28;20435;-56
2024/01/18 07:44:47;;;;;;;1.30;0.40;;;5.00;99.90;;;;;;5068382;28;20450;-55
2024/01/18 07:47:14;;;;;;;0.80;0.40;;;4.90;99.90;;;;;;5066116;28;20868;-57
2024/01/18 07:49:45;;;;;;;0.80;0.40;;;5.00;99.90;;;;;;5070166;28;20435;-56
2024/01/18 07:52:13;;;;;;;0.60;0.30;;;5.10;99.90;;;;;;5068652;28;20867;-54
2024/01/18 07:54:41;;;;;;;0.60;0.40;;;5.30;99.90;;;;;;5069129;28;20454;-54
2024/01/18 07:57:08;;;;;;;0.70;0.38;;;5.20;99.90;;;;;;5067554;28;20454;-57
2024/01/18 07:59:36;;;;;;;1.70;0.40;;;5.10;99.90;;;;;;5070955;28;20443;-58
2024/01/18 08:02:03;;;;;;;0.70;0.40;;;5.10;99.90;;;;;;5073761;28;20423;-57
2024/01/18 08:04:31;;;;;;;0.60;0.30;;;5.30;99.90;;;;;;5073408;28;20865;-56
2024/01/18 08:06:58;;;;;;;0.50;0.30;;;5.60;99.90;;;;;;5074796;28;20450;-59
2024/01/18 08:09:25;;;;;;;0.80;0.40;;;5.50;99.90;;;;;;5071457;28;20899;-59
2024/01/18 08:11:54;;;;;;;0.50;0.30;;;5.60;99.90;;;;;;5072289;28;20458;-60
2024/01/18 08:14:21;;;;;;;0.90;0.40;;;5.90;99.90;;;;;;5073465;28;20442;-59
2024/01/18 08:16:48;;;;;;;0.50;0.30;;;5.70;99.90;;;;;;5073732;28;20451;-59
2024/01/18 08:19:15;;;;;;;0.80;0.40;;;5.60;99.90;;;;;;5074085;28;20860;-58
2024/01/18 08:21:44;;;;;;;0.77;0.40;;;5.10;99.90;;;;;;5067256;28;20451;-57
2024/01/18 08:24:12;;;;;;;0.60;0.30;;;4.90;99.90;;;;;;5067552;28;20737;-58
2024/01/18 08:26:39;;;;;;;0.88;0.50;;;4.90;99.90;;;;;;5073207;28;20430;-58
2024/01/18 08:29:07;;;;;;;1.10;0.50;;;5.00;99.90;;;;;;5073178;28;20783;-53
2024/01/18 08:31:34;;;;;;;0.88;0.50;;;4.80;99.90;;;;;;5073475;28;20442;-56
2024/01/18 08:34:02;;;;;;;0.80;0.40;;;4.60;99.90;;;;;;5071633;28;20446;-55
2024/01/18 08:36:29;;;;;;;0.60;0.40;;;4.70;99.90;;;;;;5071342;28;20520;-54
2024/01/18 08:38:56;;;;;;;0.65;0.40;;;5.00;99.90;;;;;;5072166;28;20439;-55
2024/01/18 08:41:23;;;;;;;0.60;0.30;;;5.20;99.90;;;;;;5070968;28;20438;-55
2024/01/18 08:43:50;;;;;;;1.00;0.50;;;5.40;99.90;;;;;;5056469;28;20728;-55
2024/01/18 08:46:19;;;;;;;0.63;0.40;;;5.20;99.90;;;;;;5073617;28;20419;-55
2024/01/18 08:48:46;;;;;;;0.52;0.30;;;5.20;99.90;;;;;;5072645;28;20440;-55
2024/01/18 08:51:14;;;;;;;0.50;0.30;;;5.40;99.90;;;;;;5071801;28;20852;-55
2024/01/18 08:53:41;;;;;;;0.50;0.30;;;5.20;99.90;;;;;;5072052;28;20841;-54
2024/01/18 08:56:08;;;;;;;1.10;0.40;;;4.80;99.90;;;;;;5072476;28;20497;-53
2024/01/18 08:58:37;;;;;;;0.60;0.40;;;4.60;99.90;;;;;;5071276;28;20432;-52
2024/01/18 09:01:04;;;;;;;0.70;0.40;;;4.40;99.90;;;;;;5073158;28;20444;-53
2024/01/18 09:03:32;;;;;;;0.60;0.40;;;4.30;99.90;;;;;;5070600;28;20845;-54
2024/01/18 09:06:00;;;;;;;0.70;0.30;;;4.30;99.90;;;;;;5067399;28;21085;-54
2024/01/18 09:08:28;;;;;;;0.83;0.50;;;4.30;99.90;;;;;;5069656;28;20462;-54
2024/01/18 09:10:56;;;;;;;0.80;0.30;;;4.40;99.90;;;;;;5073819;28;20434;-55
2024/01/18 09:13:23;;;;;;;1.10;0.50;;;4.50;99.90;;;;;;5073860;28;20517;-57
2024/01/18 09:15:51;;;;;;;0.70;0.40;;;4.30;99.90;;;;;;5073806;28;20849;-56
2024/01/18 09:18:19;;;;;;;0.73;0.40;;;4.50;99.90;;;;;;5071216;28;20435;-55
2024/01/18 09:20:48;;;;;;;0.60;0.40;;;4.80;99.90;;;;;;5075001;28;20790;-54
2024/01/18 09:23:15;;;;;;;0.52;0.40;;;4.50;99.90;;;;;;5072535;28;20464;-57
2024/01/18 09:25:43;;;;;;;0.70;0.40;;;4.40;99.90;;;;;;5075576;28;20860;-56
2024/01/18 09:28:10;;;;;;;0.50;0.30;;;4.40;99.90;;;;;;5074624;28;20719;-51
2024/01/18 09:30:37;;;;;;;2.20;0.40;;;4.80;99.90;;;;;;5071307;28;20498;-54
2024/01/18 09:33:05;;;;;;;0.80;0.30;;;4.50;99.90;;;;;;5062640;28;20470;-54
2024/01/18 09:35:32;;;;;;;0.73;0.30;;;4.20;99.90;;;;;;5074457;28;20510;-56
2024/01/18 09:38:01;;;;;;;0.95;0.40;;;4.20;99.90;;;;;;5074617;28;20442;-56
2024/01/18 09:40:28;;;;;;;0.50;0.20;;;4.60;99.90;;;;;;5075434;28;20435;-52
2024/01/18 09:43:00;;;;;;;0.80;0.30;;;4.80;99.90;;;;;;5074030;28;20431;-54
2024/01/18 09:45:29;;;;;;;0.50;0.20;;;4.90;99.90;;;;;;5074702;28;20447;-52
2024/01/18 09:47:56;;;;;;;0.40;0.20;;;4.40;99.90;;;;;;5075070;28;20843;-50
2024/01/18 09:50:25;;;;;;;0.40;0.20;;;3.90;99.90;;;;;;5074190;28;20419;-54
2024/01/18 09:52:52;;;;;;;0.40;0.20;;;4.00;99.90;;;;;;5073325;28;20419;-54
2024/01/18 09:55:20;;;;;;;0.52;0.30;;;3.90;99.90;;;;;;5074511;28;20485;-52
2024/01/18 09:57:49;;;;;;;0.70;0.20;;;3.90;99.90;;;;;;5074500;28;20872;-53
2024/01/18 10:00:19;;;;;;;0.82;0.20;;;4.10;99.90;;;;;;5074374;28;20463;-52
2024/01/18 10:02:46;;;;;;;0.50;0.20;;;3.80;99.90;;;;;;5075448;28;20489;-55
2024/01/18 10:05:13;;;;;;;0.50;0.20;;;3.90;99.90;;;;;;5072869;28;20466;-53
2024/01/18 10:07:41;;;;;;;0.60;0.20;;;4.00;99.90;;;;;;5073441;28;20485;-55
2024/01/18 10:10:12;;;;;;;0.50;0.30;;;4.00;99.90;;;;;;5073131;28;20416;-51
2024/01/18 10:12:42;;;;;;;0.50;0.22;;;3.70;99.90;;;;;;5072186;28;20455;-54
2024/01/18 10:15:13;;;;;;;0.50;0.20;;;3.50;99.90;;;;;;5069433;28;20543;-52
2024/01/18 10:17:40;;;;;;;1.10;0.30;;;3.80;99.90;;;;;;5046302;28;20875;-52
2024/01/18 10:20:13;;;;;;;1.92;0.22;;;3.70;99.90;;;;;;5065298;28;20436;-59
2024/01/18 10:22:43;;;;;;;0.50;0.30;;;3.70;99.90;;;;;;5072293;28;20550;-57
2024/01/18 10:25:12;;;;;;;0.50;0.30;;;3.40;99.90;;;;;;5073231;28;20449;-56
2024/01/18 10:27:42;;;;;;;0.40;0.20;;;3.30;99.90;;;;;;5074068;28;20493;-57
2024/01/18 10:30:12;;;;;;;0.30;0.20;;;3.20;99.90;;;;;;5075916;28;20525;-58
2024/01/18 10:32:41;;;;;;;0.50;0.22;;;3.20;99.90;;;;;;5070786;28;20431;-56
2024/01/18 10:35:19;;;;;;;0.60;0.20;;;3.20;99.90;;;;;;5063179;28;20428;-58
2024/01/18 10:37:47;;;;;;;0.40;0.20;;;3.20;99.90;;;;;;5072362;28;20973;-62
2024/01/18 10:40:19;;;;;;;0.63;0.20;;;3.30;99.90;;;;;;5070985;28;20451;-58
2024/01/18 10:42:48;;;;;;;0.50;0.20;;;3.20;99.90;;;;;;5071783;28;21053;-60
2024/01/18 10:45:17;;;;;;;0.40;0.20;;;3.20;99.90;;;;;;5069443;28;20825;-59
2024/01/18 10:47:45;;;;;;;0.40;0.20;;;3.00;99.90;;;;;;5065490;28;20423;-61
2024/01/18 10:50:12;;;;;;;0.85;0.30;;;2.90;99.90;;;;;;5069570;28;20513;-59
2024/01/18 10:52:40;;;;;;;0.40;0.20;;;3.20;99.90;;;;;;5071245;28;20670;-57
2024/01/18 10:55:09;;;;;;;0.50;0.20;;;3.40;99.90;;;;;;5058820;28;21040;-58
2024/01/18 10:57:36;;;;;;;0.70;0.20;;;3.80;99.90;;;;;;5056026;28;20795;-59
2024/01/18 11:00:07;;;;;;;0.50;0.20;;;3.90;99.90;;;;;;5069891;28;20431;-58
2024/01/18 11:02:39;;;;;;;0.43;0.20;;;4.00;99.90;;;;;;5069799;28;20449;-57
2024/01/18 11:05:09;;;;;;;0.50;0.25;;;4.20;99.90;;;;;;5072297;28;20829;-58
2024/01/18 11:07:38;;;;;;;0.40;0.30;;;4.30;99.90;;;;;;5070282;28;20496;-59
2024/01/18 11:10:09;;;;;;;0.50;0.30;;;4.20;99.90;;;;;;5071953;28;20439;-59
2024/01/18 11:12:36;;;;;;;0.50;0.30;;;4.10;99.90;;;;;;5071922;28;20427;-59
2024/01/18 11:15:07;;;;;;;0.90;0.30;;;3.90;99.90;;;;;;5070680;28;20424;-59
2024/01/18 11:17:36;;;;;;;1.60;0.30;;;3.60;99.90;;;;;;5069040;28;20423;-59
2024/01/18 11:20:04;;;;;;;0.50;0.30;;;4.00;99.90;;;;;;5071926;28;20675;-60
2024/01/18 11:22:33;;;;;;;0.40;0.30;;;3.90;99.90;;;;;;5072876;28;20427;-60
2024/01/18 11:25:05;;;;;;;0.60;0.20;;;3.80;99.90;;;;;;5069498;28;20492;-60
2024/01/18 11:27:37;;;;;;;0.80;0.30;;;4.10;99.90;;;;;;5069948;28;20518;-60
2024/01/18 11:30:09;;;;;;;0.80;0.20;;;4.20;99.90;;;;;;5071439;28;20827;-59
2024/01/18 11:32:36;;;;;;;0.70;0.30;;;4.00;99.90;;;;;;5071279;28;20569;-59
2024/01/18 11:35:11;;;;;;;0.50;0.30;;;3.80;99.90;;;;;;5071215;28;20454;-58
2024/01/18 11:37:39;;;;;;;0.65;0.30;;;3.30;99.90;;;;;;5070239;28;20419;-58
2024/01/18 11:40:10;;;;;;;0.60;0.30;;;3.50;99.90;;;;;;5069200;28;20546;-58
2024/01/18 11:42:40;;;;;;;0.57;0.30;;;3.30;99.90;;;;;;5070630;28;20423;-58
2024/01/18 11:45:16;;;;;;;0.70;0.40;;;3.30;99.90;;;;;;5071267;28;20427;-57
2024/01/18 11:47:44;;;;;;;0.55;0.40;;;3.10;99.90;;;;;;5071948;28;20434;-62
2024/01/18 11:50:12;;;;;;;0.50;0.30;;;3.10;99.90;;;;;;5071480;28;20411;-59
2024/01/18 11:52:41;;;;;;;0.70;0.40;;;3.40;99.90;;;;;;5071035;28;20841;-59
2024/01/18 11:55:10;;;;;;;0.57;0.40;;;3.60;99.90;;;;;;5071766;28;20510;-58
2024/01/18 11:57:37;;;;;;;0.50;0.30;;;3.40;99.90;;;;;;5072124;28;20801;-58
2024/01/18 12:00:06;;;;;;;0.60;0.30;;;3.40;99.90;;;;;;5071576;28;20500;-58
2024/01/18 12:02:35;;;;;;;1.50;0.40;;;3.40;99.90;;;;;;5071462;28;20423;-59
2024/01/18 12:05:03;;;;;;;0.63;0.30;;;3.40;99.90;;;;;;5073121;28;20430;-58
2024/01/18 12:07:30;;;;;;;1.10;0.40;;;3.40;99.90;;;;;;5070835;28;20427;-56
2024/01/18 12:09:58;;;;;;;0.90;0.43;;;3.10;99.90;;;;;;5070085;28;20729;-56
2024/01/18 12:12:25;;;;;;;0.73;0.40;;;3.10;99.90;;;;;;5069039;28;20540;-56
2024/01/18 12:14:52;;;;;;;0.80;0.40;;;3.10;99.90;;;;;;5070310;28;20889;-57
2024/01/18 12:17:19;;;;;;;0.95;0.60;;;3.20;99.90;;;;;;5069563;28;20890;-57
2024/01/18 12:19:49;;;;;;;0.90;0.50;;;3.20;99.90;;;;;;5070030;28;20825;-57
2024/01/18 12:22:17;;;;;;;0.70;0.40;;;2.80;99.90;;;;;;5069138;28;20461;-56
2024/01/18 12:24:45;;;;;;;0.80;0.50;;;2.70;99.90;;;;;;5069278;28;20530;-56
2024/01/18 12:27:13;;;;;;;0.80;0.50;;;2.70;99.90;;;;;;5069540;28;20430;-55
2024/01/18 12:29:42;;;;;;;0.93;0.50;;;3.00;99.90;;;;;;5070717;28;20427;-56
2024/01/18 12:32:09;;;;;;;1.10;0.50;;;2.80;99.90;;;;;;5063898;28;20416;-55
2024/01/18 12:34:37;;;;;;;0.80;0.50;;;2.70;99.90;;;;;;5070352;28;20458;-55
2024/01/18 12:37:06;;;;;;;1.00;0.63;;;2.70;99.90;;;;;;5068909;28;20423;-54
2024/01/18 12:39:33;;;;;;;1.00;0.60;;;2.70;99.90;;;;;;5069522;28;20439;-55
2024/01/18 12:42:01;;;;;;;1.00;0.60;;;2.70;99.90;;;;;;5068882;28;20428;-56
2024/01/18 12:44:29;;;;;;;1.00;0.70;;;2.60;99.90;;;;;;5069720;28;20721;-56
2024/01/18 12:46:56;;;;;;;1.00;0.60;;;2.30;99.90;;;;;;5070211;28;20499;-55
2024/01/18 12:49:25;;;;;;;1.00;0.60;;;2.30;99.90;;;;;;5073493;28;20425;-59
2024/01/18 12:51:54;;;;;;;1.30;0.70;;;2.40;99.90;;;;;;5073603;28;20455;-58
2024/01/18 12:54:24;;;;;;;0.90;0.60;;;2.60;99.90;;;;;;5075180;28;20876;-57
2024/01/18 12:56:57;;;;;;;0.90;0.60;;;2.80;99.90;;;;;;5073015;28;20439;-59
2024/01/18 12:59:25;;;;;;;1.02;0.60;;;2.80;99.90;;;;;;5075003;28;20474;-59
2024/01/18 13:01:52;;;;;;;1.10;0.70;;;3.20;99.90;;;;;;5074097;28;20435;-57